Ontonagon, Michigan
Current Conditions -  °F | °C
As of 6:53 AM on Sunday 23 Nov 2014 (Local Time) from KCMX Reporting Station
Haze Haze  
Wind Chill: -2°   Ceiling: 700
Heat Index:   Visibility: 5mi
Dew Point:   Wind: 10mph
Humidity: 89%   Direction: 70°ENE
Pressure: 29.52"   Gusts: NA
Location:  46.87°N, 89.31°W
Report Text: KCMX 231153Z AUTO 07009KT 5SM BR OVC007 02/01 A2952 RMK AO2 SLP006 T00220006 10022 20006 56018
Loading
Personal Weather Stations






























Interactive Weather Map New forecast layout! Learn more

10-Day Weather Forecast

Advertisements
Track Severe Weather on mobile